sensor_id;sensor_type;location;lat;lon;timestamp;P1;durP1;ratioP1;P2;durP2;ratioP2
41139;SDS011;26881;48.784;9.192;2024-03-02T00:05:07;16.03;;;12.80;;
41139;SDS011;26881;48.784;9.192;2024-03-02T00:10:38;16.33;;;12.30;;
41139;SDS011;26881;48.784;9.192;2024-03-02T00:16:03;17.70;;;12.07;;
41139;SDS011;26881;48.784;9.192;2024-03-02T00:21:27;15.52;;;12.52;;
41139;SDS011;26881;48.784;9.192;2024-03-02T00:26:51;15.93;;;12.87;;
41139;SDS011;26881;48.784;9.192;2024-03-02T00:32:13;21.53;;;14.57;;
41139;SDS011;26881;48.784;9.192;2024-03-02T00:37:38;17.70;;;14.17;;
41139;SDS011;26881;48.784;9.192;2024-03-02T00:43:00;18.53;;;14.27;;
41139;SDS011;26881;48.784;9.192;2024-03-02T00:48:23;15.40;;;12.17;;
41139;SDS011;26881;48.784;9.192;2024-03-02T00:53:47;19.73;;;13.93;;
41139;SDS011;26881;48.784;9.192;2024-03-02T00:59:10;16.63;;;13.60;;
41139;SDS011;26881;48.784;9.192;2024-03-02T01:04:32;17.37;;;14.10;;
41139;SDS011;26881;48.784;9.192;2024-03-02T01:09:54;16.73;;;13.33;;
41139;SDS011;26881;48.784;9.192;2024-03-02T01:15:16;17.30;;;13.80;;
41139;SDS011;26881;48.784;9.192;2024-03-02T01:20:38;18.20;;;13.77;;
41139;SDS011;26881;48.784;9.192;2024-03-02T01:26:00;20.87;;;13.67;;
41139;SDS011;26881;48.784;9.192;2024-03-02T01:31:21;18.27;;;13.93;;
41139;SDS011;26881;48.784;9.192;2024-03-02T01:36:43;20.30;;;14.37;;
41139;SDS011;26881;48.784;9.192;2024-03-02T01:42:05;17.90;;;14.13;;
41139;SDS011;26881;48.784;9.192;2024-03-02T01:47:27;18.17;;;13.60;;
41139;SDS011;26881;48.784;9.192;2024-03-02T01:52:49;17.63;;;14.73;;
41139;SDS011;26881;48.784;9.192;2024-03-02T01:58:11;16.30;;;12.30;;
41139;SDS011;26881;48.784;9.192;2024-03-02T02:03:33;17.07;;;12.40;;
41139;SDS011;26881;48.784;9.192;2024-03-02T02:08:55;17.67;;;12.23;;
41139;SDS011;26881;48.784;9.192;2024-03-02T02:14:17;16.50;;;12.53;;
41139;SDS011;26881;48.784;9.192;2024-03-02T02:19:40;15.23;;;11.40;;
41139;SDS011;26881;48.784;9.192;2024-03-02T02:25:02;15.77;;;12.63;;
41139;SDS011;26881;48.784;9.192;2024-03-02T02:30:25;18.53;;;13.47;;
41139;SDS011;26881;48.784;9.192;2024-03-02T02:35:49;15.70;;;12.27;;
41139;SDS011;26881;48.784;9.192;2024-03-02T02:41:11;19.47;;;13.53;;
41139;SDS011;26881;48.784;9.192;2024-03-02T02:46:33;19.50;;;13.60;;
41139;SDS011;26881;48.784;9.192;2024-03-02T02:51:55;19.97;;;13.77;;
41139;SDS011;26881;48.784;9.192;2024-03-02T02:57:17;18.07;;;13.40;;
41139;SDS011;26881;48.784;9.192;2024-03-02T03:02:40;17.87;;;13.33;;
41139;SDS011;26881;48.784;9.192;2024-03-02T03:08:05;18.80;;;13.63;;
41139;SDS011;26881;48.784;9.192;2024-03-02T03:13:27;17.60;;;13.23;;
41139;SDS011;26881;48.784;9.192;2024-03-02T03:18:48;21.23;;;14.83;;
41139;SDS011;26881;48.784;9.192;2024-03-02T03:24:13;22.33;;;14.23;;
41139;SDS011;26881;48.784;9.192;2024-03-02T03:29:36;21.53;;;14.80;;
41139;SDS011;26881;48.784;9.192;2024-03-02T03:34:58;22.50;;;16.30;;
41139;SDS011;26881;48.784;9.192;2024-03-02T03:40:20;23.03;;;16.27;;
41139;SDS011;26881;48.784;9.192;2024-03-02T03:45:41;21.27;;;16.17;;
41139;SDS011;26881;48.784;9.192;2024-03-02T03:51:03;20.57;;;16.40;;
41139;SDS011;26881;48.784;9.192;2024-03-02T03:56:25;20.83;;;15.90;;
41139;SDS011;26881;48.784;9.192;2024-03-02T04:01:47;19.83;;;14.83;;
41139;SDS011;26881;48.784;9.192;2024-03-02T04:07:09;20.93;;;14.87;;
41139;SDS011;26881;48.784;9.192;2024-03-02T04:12:31;21.57;;;15.63;;
41139;SDS011;26881;48.784;9.192;2024-03-02T04:17:54;21.10;;;15.33;;
41139;SDS011;26881;48.784;9.192;2024-03-02T04:23:17;21.83;;;15.60;;
41139;SDS011;26881;48.784;9.192;2024-03-02T04:28:38;22.40;;;15.93;;
41139;SDS011;26881;48.784;9.192;2024-03-02T04:34:00;24.70;;;17.23;;
41139;SDS011;26881;48.784;9.192;2024-03-02T04:39:22;24.33;;;16.50;;
41139;SDS011;26881;48.784;9.192;2024-03-02T04:44:44;22.10;;;15.90;;
41139;SDS011;26881;48.784;9.192;2024-03-02T04:50:06;23.17;;;17.00;;
41139;SDS011;26881;48.784;9.192;2024-03-02T04:55:29;27.03;;;18.07;;
41139;SDS011;26881;48.784;9.192;2024-03-02T05:01:11;27.67;;;17.63;;
41139;SDS011;26881;48.784;9.192;2024-03-02T05:06:33;25.40;;;17.27;;
41139;SDS011;26881;48.784;9.192;2024-03-02T05:11:55;26.63;;;18.50;;
41139;SDS011;26881;48.784;9.192;2024-03-02T05:17:51;26.73;;;18.50;;
41139;SDS011;26881;48.784;9.192;2024-03-02T05:23:13;27.60;;;18.37;;
41139;SDS011;26881;48.784;9.192;2024-03-02T05:28:36;25.60;;;17.70;;
41139;SDS011;26881;48.784;9.192;2024-03-02T05:33:58;24.10;;;17.77;;
41139;SDS011;26881;48.784;9.192;2024-03-02T05:39:21;26.33;;;18.60;;
41139;SDS011;26881;48.784;9.192;2024-03-02T05:44:43;28.17;;;23.30;;
41139;SDS011;26881;48.784;9.192;2024-03-02T05:50:05;25.70;;;18.97;;
41139;SDS011;26881;48.784;9.192;2024-03-02T05:55:28;25.43;;;18.27;;
41139;SDS011;26881;48.784;9.192;2024-03-02T06:00:50;25.17;;;18.10;;
41139;SDS011;26881;48.784;9.192;2024-03-02T06:06:12;25.73;;;17.20;;
41139;SDS011;26881;48.784;9.192;2024-03-02T06:11:35;30.17;;;18.80;;
41139;SDS011;26881;48.784;9.192;2024-03-02T06:16:58;26.23;;;17.80;;
41139;SDS011;26881;48.784;9.192;2024-03-02T06:22:21;26.17;;;18.83;;
41139;SDS011;26881;48.784;9.192;2024-03-02T06:27:44;30.43;;;18.70;;
41139;SDS011;26881;48.784;9.192;2024-03-02T06:33:06;28.10;;;19.10;;
41139;SDS011;26881;48.784;9.192;2024-03-02T06:38:28;28.80;;;20.50;;
41139;SDS011;26881;48.784;9.192;2024-03-02T06:43:50;27.60;;;19.03;;
41139;SDS011;26881;48.784;9.192;2024-03-02T06:49:16;26.87;;;19.10;;
41139;SDS011;26881;48.784;9.192;2024-03-02T06:54:39;23.27;;;17.97;;
41139;SDS011;26881;48.784;9.192;2024-03-02T07:00:01;23.40;;;17.80;;
41139;SDS011;26881;48.784;9.192;2024-03-02T07:05:26;27.43;;;18.80;;
41139;SDS011;26881;48.784;9.192;2024-03-02T07:10:48;25.17;;;18.30;;
41139;SDS011;26881;48.784;9.192;2024-03-02T07:16:10;25.53;;;17.90;;
41139;SDS011;26881;48.784;9.192;2024-03-02T07:21:32;24.37;;;17.40;;
41139;SDS011;26881;48.784;9.192;2024-03-02T07:26:55;25.27;;;17.53;;
41139;SDS011;26881;48.784;9.192;2024-03-02T07:32:17;25.27;;;17.37;;
41139;SDS011;26881;48.784;9.192;2024-03-02T07:37:38;23.00;;;17.40;;
41139;SDS011;26881;48.784;9.192;2024-03-02T07:43:00;23.83;;;16.57;;
41139;SDS011;26881;48.784;9.192;2024-03-02T07:48:22;20.80;;;16.27;;
41139;SDS011;26881;48.784;9.192;2024-03-02T07:53:44;21.37;;;17.13;;
41139;SDS011;26881;48.784;9.192;2024-03-02T07:59:08;24.73;;;16.77;;
41139;SDS011;26881;48.784;9.192;2024-03-02T08:04:30;12.70;;;10.90;;
41139;SDS011;26881;48.784;9.192;2024-03-02T08:09:52;18.85;;;13.93;;
41139;SDS011;26881;48.784;9.192;2024-03-02T08:15:14;14.93;;;10.60;;
41139;SDS011;26881;48.784;9.192;2024-03-02T08:20:36;15.23;;;10.83;;
41139;SDS011;26881;48.784;9.192;2024-03-02T08:25:58;11.10;;;8.67;;
41139;SDS011;26881;48.784;9.192;2024-03-02T08:31:20;17.03;;;12.23;;
41139;SDS011;26881;48.784;9.192;2024-03-02T08:36:41;16.23;;;11.95;;
41139;SDS011;26881;48.784;9.192;2024-03-02T08:42:04;16.08;;;11.18;;
41139;SDS011;26881;48.784;9.192;2024-03-02T08:47:26;13.60;;;11.25;;
41139;SDS011;26881;48.784;9.192;2024-03-02T08:52:48;13.38;;;10.85;;
41139;SDS011;26881;48.784;9.192;2024-03-02T08:58:10;12.27;;;9.38;;
41139;SDS011;26881;48.784;9.192;2024-03-02T09:03:32;15.02;;;9.00;;
41139;SDS011;26881;48.784;9.192;2024-03-02T09:08:55;7.65;;;6.93;;
41139;SDS011;26881;48.784;9.192;2024-03-02T09:14:17;7.00;;;6.20;;
41139;SDS011;26881;48.784;9.192;2024-03-02T09:19:39;7.35;;;5.20;;
41139;SDS011;26881;48.784;9.192;2024-03-02T09:25:01;5.70;;;5.18;;
41139;SDS011;26881;48.784;9.192;2024-03-02T09:30:23;4.13;;;3.80;;
41139;SDS011;26881;48.784;9.192;2024-03-02T09:35:45;5.78;;;4.95;;
41139;SDS011;26881;48.784;9.192;2024-03-02T09:41:07;4.32;;;4.00;;
41139;SDS011;26881;48.784;9.192;2024-03-02T09:46:29;4.40;;;4.00;;
41139;SDS011;26881;48.784;9.192;2024-03-02T09:51:52;4.80;;;4.35;;
41139;SDS011;26881;48.784;9.192;2024-03-02T09:57:14;3.85;;;3.55;;
41139;SDS011;26881;48.784;9.192;2024-03-02T10:02:36;4.15;;;3.75;;
41139;SDS011;26881;48.784;9.192;2024-03-02T10:08:00;4.05;;;3.60;;
41139;SDS011;26881;48.784;9.192;2024-03-02T10:13:26;4.28;;;3.97;;
41139;SDS011;26881;48.784;9.192;2024-03-02T10:18:48;4.88;;;3.90;;
41139;SDS011;26881;48.784;9.192;2024-03-02T10:24:10;3.50;;;3.17;;
41139;SDS011;26881;48.784;9.192;2024-03-02T10:29:32;3.50;;;3.30;;
41139;SDS011;26881;48.784;9.192;2024-03-02T10:34:54;5.82;;;3.20;;
41139;SDS011;26881;48.784;9.192;2024-03-02T10:40:17;3.58;;;3.28;;
41139;SDS011;26881;48.784;9.192;2024-03-02T10:45:39;4.00;;;3.60;;
41139;SDS011;26881;48.784;9.192;2024-03-02T10:51:01;3.47;;;3.17;;
41139;SDS011;26881;48.784;9.192;2024-03-02T10:56:27;3.88;;;3.53;;
41139;SDS011;26881;48.784;9.192;2024-03-02T11:01:50;3.38;;;2.78;;
41139;SDS011;26881;48.784;9.192;2024-03-02T11:07:19;3.00;;;2.60;;
41139;SDS011;26881;48.784;9.192;2024-03-02T11:12:46;3.78;;;2.90;;
41139;SDS011;26881;48.784;9.192;2024-03-02T11:18:14;4.45;;;3.30;;
41139;SDS011;26881;48.784;9.192;2024-03-02T11:23:38;5.35;;;4.45;;
41139;SDS011;26881;48.784;9.192;2024-03-02T11:29:02;10.85;;;8.80;;
41139;SDS011;26881;48.784;9.192;2024-03-02T11:34:29;3.50;;;3.20;;
41139;SDS011;26881;48.784;9.192;2024-03-02T11:39:52;3.97;;;2.80;;
41139;SDS011;26881;48.784;9.192;2024-03-02T11:45:17;2.80;;;2.60;;
41139;SDS011;26881;48.784;9.192;2024-03-02T11:50:46;2.35;;;2.00;;
41139;SDS011;26881;48.784;9.192;2024-03-02T11:56:11;3.83;;;2.00;;
41139;SDS011;26881;48.784;9.192;2024-03-02T12:01:34;2.78;;;1.48;;
41139;SDS011;26881;48.784;9.192;2024-03-02T12:12:23;2.63;;;1.10;;
41139;SDS011;26881;48.784;9.192;2024-03-02T12:17:44;1.02;;;0.98;;
41139;SDS011;26881;48.784;9.192;2024-03-02T12:23:06;1.00;;;0.93;;
41139;SDS011;26881;48.784;9.192;2024-03-02T12:28:29;2.13;;;1.50;;
41139;SDS011;26881;48.784;9.192;2024-03-02T12:33:54;1.27;;;1.17;;
41139;SDS011;26881;48.784;9.192;2024-03-02T12:39:16;2.47;;;1.10;;
41139;SDS011;26881;48.784;9.192;2024-03-02T12:44:39;0.90;;;0.90;;
41139;SDS011;26881;48.784;9.192;2024-03-02T12:50:01;1.23;;;1.17;;
41139;SDS011;26881;48.784;9.192;2024-03-02T12:55:25;1.23;;;1.00;;
41139;SDS011;26881;48.784;9.192;2024-03-02T13:00:47;1.98;;;1.00;;
41139;SDS011;26881;48.784;9.192;2024-03-02T13:06:10;1.05;;;0.95;;
41139;SDS011;26881;48.784;9.192;2024-03-02T13:11:32;0.85;;;0.80;;
41139;SDS011;26881;48.784;9.192;2024-03-02T13:16:55;0.98;;;0.93;;
41139;SDS011;26881;48.784;9.192;2024-03-02T13:22:19;2.00;;;0.70;;
41139;SDS011;26881;48.784;9.192;2024-03-02T13:27:42;1.30;;;1.20;;
41139;SDS011;26881;48.784;9.192;2024-03-02T13:33:04;5.03;;;1.02;;
41139;SDS011;26881;48.784;9.192;2024-03-02T13:38:26;1.30;;;1.20;;
41139;SDS011;26881;48.784;9.192;2024-03-02T13:43:48;1.02;;;1.00;;
41139;SDS011;26881;48.784;9.192;2024-03-02T13:49:13;1.35;;;1.20;;
41139;SDS011;26881;48.784;9.192;2024-03-02T13:54:36;0.80;;;0.80;;
41139;SDS011;26881;48.784;9.192;2024-03-02T13:59:59;1.42;;;0.90;;
41139;SDS011;26881;48.784;9.192;2024-03-02T14:05:22;1.55;;;1.00;;
41139;SDS011;26881;48.784;9.192;2024-03-02T14:10:44;1.90;;;0.93;;
41139;SDS011;26881;48.784;9.192;2024-03-02T14:16:06;0.98;;;0.90;;
41139;SDS011;26881;48.784;9.192;2024-03-02T14:21:28;1.50;;;1.10;;
41139;SDS011;26881;48.784;9.192;2024-03-02T14:26:50;1.13;;;0.95;;
41139;SDS011;26881;48.784;9.192;2024-03-02T14:32:14;1.30;;;0.90;;
41139;SDS011;26881;48.784;9.192;2024-03-02T14:37:36;1.27;;;1.17;;
41139;SDS011;26881;48.784;9.192;2024-03-02T14:42:58;1.05;;;0.90;;
41139;SDS011;26881;48.784;9.192;2024-03-02T14:48:20;1.13;;;0.98;;
41139;SDS011;26881;48.784;9.192;2024-03-02T14:53:43;1.38;;;0.90;;
41139;SDS011;26881;48.784;9.192;2024-03-02T14:59:05;0.88;;;0.82;;
41139;SDS011;26881;48.784;9.192;2024-03-02T15:04:27;2.55;;;0.70;;
41139;SDS011;26881;48.784;9.192;2024-03-02T15:09:49;0.88;;;0.88;;
41139;SDS011;26881;48.784;9.192;2024-03-02T15:15:12;0.95;;;0.93;;
41139;SDS011;26881;48.784;9.192;2024-03-02T15:20:33;1.38;;;0.90;;
41139;SDS011;26881;48.784;9.192;2024-03-02T15:25:56;1.08;;;1.00;;
41139;SDS011;26881;48.784;9.192;2024-03-02T15:31:18;2.08;;;1.30;;
41139;SDS011;26881;48.784;9.192;2024-03-02T15:36:39;1.17;;;1.10;;
41139;SDS011;26881;48.784;9.192;2024-03-02T15:42:01;1.38;;;1.27;;
41139;SDS011;26881;48.784;9.192;2024-03-02T15:47:25;1.90;;;1.20;;
41139;SDS011;26881;48.784;9.192;2024-03-02T15:52:47;1.85;;;1.17;;
41139;SDS011;26881;48.784;9.192;2024-03-02T15:58:09;1.45;;;1.35;;
41139;SDS011;26881;48.784;9.192;2024-03-02T16:03:32;3.03;;;1.80;;
41139;SDS011;26881;48.784;9.192;2024-03-02T16:08:54;2.60;;;2.35;;
41139;SDS011;26881;48.784;9.192;2024-03-02T16:14:18;4.50;;;1.90;;
41139;SDS011;26881;48.784;9.192;2024-03-02T16:19:40;1.60;;;1.50;;
41139;SDS011;26881;48.784;9.192;2024-03-02T16:25:03;2.28;;;1.60;;
41139;SDS011;26881;48.784;9.192;2024-03-02T16:30:26;2.08;;;1.88;;
41139;SDS011;26881;48.784;9.192;2024-03-02T16:35:48;3.28;;;1.85;;
41139;SDS011;26881;48.784;9.192;2024-03-02T16:41:11;5.03;;;2.30;;
41139;SDS011;26881;48.784;9.192;2024-03-02T16:46:33;4.43;;;2.97;;
41139;SDS011;26881;48.784;9.192;2024-03-02T16:51:55;4.28;;;3.35;;
41139;SDS011;26881;48.784;9.192;2024-03-02T16:57:17;5.22;;;3.13;;
41139;SDS011;26881;48.784;9.192;2024-03-02T17:02:39;7.65;;;4.00;;
41139;SDS011;26881;48.784;9.192;2024-03-02T17:08:01;5.85;;;4.05;;
41139;SDS011;26881;48.784;9.192;2024-03-02T17:13:22;5.07;;;4.30;;
41139;SDS011;26881;48.784;9.192;2024-03-02T17:18:45;5.00;;;3.85;;
41139;SDS011;26881;48.784;9.192;2024-03-02T17:24:07;10.32;;;4.97;;
41139;SDS011;26881;48.784;9.192;2024-03-02T17:29:29;15.45;;;7.13;;
41139;SDS011;26881;48.784;9.192;2024-03-02T17:34:51;9.02;;;5.72;;
41139;SDS011;26881;48.784;9.192;2024-03-02T17:40:12;8.55;;;5.57;;
41139;SDS011;26881;48.784;9.192;2024-03-02T17:45:35;12.98;;;6.45;;
41139;SDS011;26881;48.784;9.192;2024-03-02T17:50:57;9.02;;;6.45;;
41139;SDS011;26881;48.784;9.192;2024-03-02T17:56:19;8.85;;;6.60;;
41139;SDS011;26881;48.784;9.192;2024-03-02T18:01:40;11.32;;;7.47;;
41139;SDS011;26881;48.784;9.192;2024-03-02T18:07:02;8.60;;;7.13;;
41139;SDS011;26881;48.784;9.192;2024-03-02T18:12:24;12.18;;;8.10;;
41139;SDS011;26881;48.784;9.192;2024-03-02T18:17:46;13.45;;;9.73;;
41139;SDS011;26881;48.784;9.192;2024-03-02T18:23:08;11.38;;;9.43;;
41139;SDS011;26881;48.784;9.192;2024-03-02T18:28:30;22.67;;;11.35;;
41139;SDS011;26881;48.784;9.192;2024-03-02T18:33:52;15.73;;;13.27;;
41139;SDS011;26881;48.784;9.192;2024-03-02T18:39:15;18.27;;;11.20;;
41139;SDS011;26881;48.784;9.192;2024-03-02T18:44:36;15.30;;;12.45;;
41139;SDS011;26881;48.784;9.192;2024-03-02T18:49:58;19.85;;;13.95;;
41139;SDS011;26881;48.784;9.192;2024-03-02T18:55:22;18.70;;;13.40;;
41139;SDS011;26881;48.784;9.192;2024-03-02T19:00:44;21.50;;;13.98;;
41139;SDS011;26881;48.784;9.192;2024-03-02T19:06:06;19.77;;;15.30;;
41139;SDS011;26881;48.784;9.192;2024-03-02T19:11:29;21.33;;;13.95;;
41139;SDS011;26881;48.784;9.192;2024-03-02T19:16:51;20.40;;;15.05;;
41139;SDS011;26881;48.784;9.192;2024-03-02T19:22:13;21.15;;;15.30;;
41139;SDS011;26881;48.784;9.192;2024-03-02T19:27:35;20.27;;;15.40;;
41139;SDS011;26881;48.784;9.192;2024-03-02T19:32:58;21.52;;;15.18;;
41139;SDS011;26881;48.784;9.192;2024-03-02T19:38:20;22.33;;;17.25;;
41139;SDS011;26881;48.784;9.192;2024-03-02T19:43:42;21.15;;;15.95;;
41139;SDS011;26881;48.784;9.192;2024-03-02T19:49:04;24.02;;;16.88;;
41139;SDS011;26881;48.784;9.192;2024-03-02T19:54:26;20.55;;;15.60;;
41139;SDS011;26881;48.784;9.192;2024-03-02T19:59:48;21.75;;;16.67;;
41139;SDS011;26881;48.784;9.192;2024-03-02T20:05:10;24.67;;;17.58;;
41139;SDS011;26881;48.784;9.192;2024-03-02T20:10:33;20.50;;;16.52;;
41139;SDS011;26881;48.784;9.192;2024-03-02T20:15:55;27.88;;;18.38;;
41139;SDS011;26881;48.784;9.192;2024-03-02T20:21:18;24.58;;;17.38;;
41139;SDS011;26881;48.784;9.192;2024-03-02T20:26:40;23.10;;;18.25;;
41139;SDS011;26881;48.784;9.192;2024-03-02T20:32:02;24.15;;;18.63;;
41139;SDS011;26881;48.784;9.192;2024-03-02T20:37:24;23.83;;;19.10;;
41139;SDS011;26881;48.784;9.192;2024-03-02T20:42:46;27.27;;;20.33;;
41139;SDS011;26881;48.784;9.192;2024-03-02T20:48:08;27.45;;;20.45;;
41139;SDS011;26881;48.784;9.192;2024-03-02T20:53:30;28.48;;;21.10;;
41139;SDS011;26881;48.784;9.192;2024-03-02T20:58:52;26.05;;;19.42;;
41139;SDS011;26881;48.784;9.192;2024-03-02T21:04:14;31.48;;;21.40;;
41139;SDS011;26881;48.784;9.192;2024-03-02T21:09:36;31.83;;;22.23;;
41139;SDS011;26881;48.784;9.192;2024-03-02T21:14:58;33.08;;;22.90;;
41139;SDS011;26881;48.784;9.192;2024-03-02T21:20:20;30.35;;;21.52;;
41139;SDS011;26881;48.784;9.192;2024-03-02T21:25:42;33.17;;;23.38;;
41139;SDS011;26881;48.784;9.192;2024-03-02T21:31:05;31.70;;;23.03;;
41139;SDS011;26881;48.784;9.192;2024-03-02T21:36:27;30.15;;;21.55;;
41139;SDS011;26881;48.784;9.192;2024-03-02T21:41:49;34.88;;;22.85;;
41139;SDS011;26881;48.784;9.192;2024-03-02T21:47:12;37.78;;;23.13;;
41139;SDS011;26881;48.784;9.192;2024-03-02T21:52:34;33.00;;;23.73;;
41139;SDS011;26881;48.784;9.192;2024-03-02T21:57:56;37.25;;;25.35;;
41139;SDS011;26881;48.784;9.192;2024-03-02T22:03:18;36.30;;;25.13;;
41139;SDS011;26881;48.784;9.192;2024-03-02T22:08:40;36.92;;;25.23;;
41139;SDS011;26881;48.784;9.192;2024-03-02T22:14:02;36.15;;;24.25;;
41139;SDS011;26881;48.784;9.192;2024-03-02T22:19:24;39.55;;;25.83;;
41139;SDS011;26881;48.784;9.192;2024-03-02T22:24:46;43.38;;;26.88;;
41139;SDS011;26881;48.784;9.192;2024-03-02T22:30:08;41.15;;;27.27;;
41139;SDS011;26881;48.784;9.192;2024-03-02T22:35:30;43.30;;;26.45;;
41139;SDS011;26881;48.784;9.192;2024-03-02T22:40:52;40.92;;;27.45;;
41139;SDS011;26881;48.784;9.192;2024-03-02T22:46:14;36.90;;;27.17;;
41139;SDS011;26881;48.784;9.192;2024-03-02T22:51:35;42.83;;;28.42;;
41139;SDS011;26881;48.784;9.192;2024-03-02T22:56:57;47.83;;;29.42;;
41139;SDS011;26881;48.784;9.192;2024-03-02T23:02:20;41.88;;;28.20;;
41139;SDS011;26881;48.784;9.192;2024-03-02T23:07:42;40.65;;;29.15;;
41139;SDS011;26881;48.784;9.192;2024-03-02T23:13:04;40.15;;;25.67;;
41139;SDS011;26881;48.784;9.192;2024-03-02T23:18:27;37.47;;;27.30;;
41139;SDS011;26881;48.784;9.192;2024-03-02T23:23:48;43.80;;;28.45;;
41139;SDS011;26881;48.784;9.192;2024-03-02T23:29:14;44.08;;;28.30;;
41139;SDS011;26881;48.784;9.192;2024-03-02T23:34:36;42.92;;;27.13;;
41139;SDS011;26881;48.784;9.192;2024-03-02T23:39:58;40.60;;;28.17;;
41139;SDS011;26881;48.784;9.192;2024-03-02T23:45:25;43.33;;;28.67;;
41139;SDS011;26881;48.784;9.192;2024-03-02T23:50:47;44.20;;;27.83;;
41139;SDS011;26881;48.784;9.192;2024-03-02T23:56:10;46.55;;;29.83;;
